createdAt,value
2019-03-18T00:00:26.343Z,5.03
2019-03-18T00:02:54.810Z,5.03
2019-03-18T00:05:23.295Z,5.02
2019-03-18T00:07:51.760Z,5.00
2019-03-18T00:10:20.206Z,4.98
2019-03-18T00:12:48.691Z,4.97
2019-03-18T00:15:17.200Z,4.95
2019-03-18T00:17:45.662Z,4.94
2019-03-18T00:20:14.799Z,4.91
2019-03-18T00:22:43.416Z,4.93
2019-03-18T00:25:18.901Z,4.95
2019-03-18T00:27:47.435Z,4.97
2019-03-18T00:30:19.836Z,4.98
2019-03-18T00:32:48.332Z,5.02
2019-03-18T00:35:17.052Z,5.03
2019-03-18T00:37:45.516Z,5.03
2019-03-18T00:40:16.431Z,5.03
2019-03-18T00:42:44.968Z,4.99
2019-03-18T00:45:15.603Z,4.98
2019-03-18T00:47:44.336Z,4.98
2019-03-18T00:50:16.138Z,4.99
2019-03-18T00:52:44.625Z,4.98
2019-03-18T00:55:13.301Z,4.95
2019-03-18T00:57:41.736Z,4.92
2019-03-18T01:00:17.697Z,4.89
2019-03-18T01:02:49.112Z,4.86
2019-03-18T01:05:16.307Z,4.85
2019-03-18T01:07:44.874Z,4.84
2019-03-18T01:10:14.538Z,4.86
2019-03-18T01:12:43.008Z,4.88
2019-03-18T01:15:12.251Z,4.91
2019-03-18T01:17:40.707Z,4.93
2019-03-18T01:20:11.265Z,4.99
2019-03-18T01:22:39.774Z,5.03
2019-03-18T01:25:12.070Z,5.09
2019-03-18T01:27:40.750Z,5.09
2019-03-18T01:30:14.592Z,5.12
2019-03-18T01:32:43.033Z,5.14
2019-03-18T01:35:12.229Z,5.14
2019-03-18T01:37:40.652Z,5.13
2019-03-18T01:40:11.040Z,5.11
2019-03-18T01:42:39.602Z,5.09
2019-03-18T01:45:09.226Z,5.07
2019-03-18T01:47:37.725Z,5.09
2019-03-18T01:50:10.733Z,5.10
2019-03-18T01:52:39.235Z,5.09
2019-03-18T01:55:07.908Z,5.11
2019-03-18T01:57:36.337Z,5.10
2019-03-18T02:00:10.027Z,5.06
2019-03-18T02:02:38.460Z,4.98
2019-03-18T02:05:08.553Z,4.99
2019-03-18T02:07:36.985Z,5.00
2019-03-18T02:10:13.455Z,5.02
2019-03-18T02:12:43.419Z,5.03
2019-03-18T02:15:14.218Z,5.08
2019-03-18T02:17:42.957Z,5.11
2019-03-18T02:20:19.427Z,5.16
2019-03-18T02:22:46.433Z,5.21
2019-03-18T02:25:14.856Z,5.26
2019-03-18T02:27:43.304Z,5.30
2019-03-18T02:30:13.870Z,5.31
2019-03-18T02:32:42.347Z,5.35
2019-03-18T02:35:10.857Z,5.37
2019-03-18T02:37:39.401Z,5.39
2019-03-18T02:40:10.171Z,5.42
2019-03-18T02:42:39.365Z,5.44
2019-03-18T02:45:09.661Z,5.46
2019-03-18T02:47:38.119Z,5.44
2019-03-18T02:50:07.688Z,5.42
2019-03-18T02:52:36.133Z,5.39
2019-03-18T02:55:05.928Z,5.39
2019-03-18T02:57:34.392Z,5.42
2019-03-18T03:00:02.903Z,5.44
2019-03-18T03:02:31.339Z,5.48
2019-03-18T03:04:59.769Z,5.47
2019-03-18T03:07:29.389Z,5.46
2019-03-18T03:09:57.832Z,5.44
2019-03-18T03:12:26.269Z,5.49
2019-03-18T03:14:54.741Z,5.45
2019-03-18T03:17:23.692Z,5.39
2019-03-18T03:19:52.092Z,5.36
2019-03-18T03:22:20.522Z,5.32
2019-03-18T03:24:48.982Z,5.28
2019-03-18T03:27:17.485Z,5.26
2019-03-18T03:29:45.933Z,5.32
2019-03-18T03:32:14.380Z,5.31
2019-03-18T03:34:42.907Z,5.34
2019-03-18T03:37:11.372Z,5.36
2019-03-18T03:39:39.802Z,5.35
2019-03-18T03:42:08.311Z,5.36
2019-03-18T03:44:36.776Z,5.34
2019-03-18T03:47:05.219Z,5.36
2019-03-18T03:49:33.656Z,5.24
2019-03-18T03:52:02.097Z,5.15
2019-03-18T03:54:30.519Z,5.08
2019-03-18T03:56:59.405Z,5.07
2019-03-18T03:59:27.906Z,5.04
2019-03-18T04:01:56.633Z,5.05
2019-03-18T04:04:25.087Z,5.10
2019-03-18T04:06:53.748Z,5.15
2019-03-18T04:09:22.180Z,5.17
2019-03-18T04:11:50.701Z,5.18
2019-03-18T04:14:19.190Z,5.17
2019-03-18T04:17:00.613Z,5.18
2019-03-18T04:19:17.954Z,5.24
2019-03-18T04:21:50.392Z,5.22
2019-03-18T04:24:16.904Z,5.20
2019-03-18T04:26:45.334Z,5.15
2019-03-18T04:29:13.789Z,5.12
2019-03-18T04:31:42.212Z,5.02
2019-03-18T04:34:10.652Z,5.02
2019-03-18T04:36:39.097Z,5.01
2019-03-18T04:39:07.827Z,4.97
2019-03-18T04:41:36.422Z,5.00
2019-03-18T04:44:04.821Z,5.01
2019-03-18T04:46:33.268Z,5.02
2019-03-18T04:49:02.070Z,5.06
2019-03-18T04:51:30.501Z,5.12
2019-03-18T04:53:58.932Z,5.15
2019-03-18T04:56:27.422Z,5.13
2019-03-18T04:58:55.840Z,5.13
2019-03-18T05:01:24.346Z,5.12
2019-03-18T05:03:52.770Z,5.13
2019-03-18T05:06:21.228Z,5.12
2019-03-18T05:08:49.743Z,5.12
2019-03-18T05:11:18.205Z,5.11
2019-03-18T05:13:46.746Z,5.13
2019-03-18T05:16:15.803Z,5.15
2019-03-18T05:18:44.243Z,5.15
2019-03-18T05:21:12.684Z,5.17
2019-03-18T05:23:41.207Z,5.16
2019-03-18T05:26:09.750Z,5.17
2019-03-18T05:28:38.170Z,5.13
2019-03-18T05:31:06.597Z,5.12
2019-03-18T05:33:35.109Z,5.15
2019-03-18T05:36:03.598Z,5.16
2019-03-18T05:38:32.003Z,5.16
2019-03-18T05:41:00.831Z,5.12
2019-03-18T05:43:29.446Z,5.11
2019-03-18T05:45:57.885Z,5.15
2019-03-18T05:48:26.321Z,5.18
2019-03-18T05:50:54.789Z,5.19
2019-03-18T05:53:23.218Z,5.12
2019-03-18T05:55:51.653Z,5.11
2019-03-18T05:58:20.111Z,5.11
2019-03-18T06:00:48.610Z,5.13
2019-03-18T06:03:17.037Z,5.16
2019-03-18T06:05:45.485Z,5.19
2019-03-18T06:08:13.919Z,5.15
2019-03-18T06:10:42.435Z,5.09
2019-03-18T06:13:14.018Z,5.06
2019-03-18T06:15:42.423Z,5.02
2019-03-18T06:18:10.928Z,5.12
2019-03-18T06:20:39.359Z,5.26
2019-03-18T06:23:07.804Z,5.41
2019-03-18T06:25:36.318Z,5.45
2019-03-18T06:28:04.790Z,5.50
2019-03-18T06:30:33.233Z,5.58
2019-03-18T06:33:01.764Z,5.76
2019-03-18T06:35:30.189Z,5.87
2019-03-18T06:37:58.643Z,5.90
2019-03-18T06:40:27.112Z,5.93
2019-03-18T06:42:55.563Z,5.92
2019-03-18T06:45:24.009Z,5.96
2019-03-18T06:48:04.079Z,5.98
2019-03-18T06:50:22.631Z,6.02
2019-03-18T06:52:51.075Z,6.04
2019-03-18T06:55:19.527Z,5.99
2019-03-18T06:57:48.922Z,5.98
2019-03-18T07:00:17.628Z,6.03
2019-03-18T07:02:46.064Z,6.08
2019-03-18T07:05:14.743Z,6.13
2019-03-18T07:07:43.190Z,6.11
2019-03-18T07:10:13.062Z,6.22
2019-03-18T07:12:41.493Z,6.26
2019-03-18T07:15:10.571Z,6.27
2019-03-18T07:17:39.020Z,6.29
2019-03-18T07:20:12.540Z,6.16
2019-03-18T07:22:41.284Z,6.16
2019-03-18T07:25:09.797Z,6.34
2019-03-18T07:27:38.661Z,6.34
2019-03-18T07:30:11.928Z,6.29
2019-03-18T07:32:40.358Z,6.27
2019-03-18T07:35:08.943Z,6.35
2019-03-18T07:37:37.401Z,6.56
2019-03-18T07:40:11.444Z,6.56
2019-03-18T07:42:39.880Z,6.62
2019-03-18T07:45:11.936Z,6.56
2019-03-18T07:47:40.400Z,6.49
2019-03-18T07:50:13.243Z,6.47
2019-03-18T07:52:41.730Z,6.58
2019-03-18T07:55:10.795Z,6.61
2019-03-18T07:57:39.217Z,6.65
2019-03-18T08:00:12.598Z,6.77
2019-03-18T08:02:41.069Z,6.77
2019-03-18T08:05:10.342Z,6.95
2019-03-18T08:07:38.801Z,7.12
2019-03-18T08:10:14.197Z,7.22
2019-03-18T08:12:42.744Z,7.20
2019-03-18T08:15:12.304Z,7.32
2019-03-18T08:17:40.818Z,7.32
2019-03-18T08:20:12.890Z,7.39
2019-03-18T08:22:41.323Z,7.37
2019-03-18T08:25:10.514Z,7.23
2019-03-18T08:27:38.979Z,7.13
2019-03-18T08:30:15.621Z,7.03
2019-03-18T08:32:44.112Z,7.03
2019-03-18T08:35:12.642Z,7.17
2019-03-18T08:37:41.142Z,7.20
2019-03-18T08:40:11.548Z,7.11
2019-03-18T08:42:39.993Z,7.01
2019-03-18T08:45:12.741Z,6.86
2019-03-18T08:47:41.190Z,6.72
2019-03-18T08:50:12.459Z,6.62
2019-03-18T08:52:41.300Z,6.63
2019-03-18T08:55:11.369Z,6.68
2019-03-18T08:57:39.857Z,6.69
2019-03-18T09:00:16.221Z,6.64
2019-03-18T09:02:44.676Z,6.63
2019-03-18T09:05:13.397Z,6.76
2019-03-18T09:07:42.003Z,7.00
2019-03-18T09:10:13.498Z,7.14
2019-03-18T09:12:42.078Z,7.32
2019-03-18T09:15:11.579Z,7.65
2019-03-18T09:17:40.192Z,7.96
2019-03-18T09:20:17.110Z,8.23
2019-03-18T09:22:45.645Z,8.13
2019-03-18T09:25:14.423Z,8.58
2019-03-18T09:27:42.851Z,8.59
2019-03-18T09:30:14.627Z,8.37
2019-03-18T09:32:43.096Z,8.27
2019-03-18T09:35:11.894Z,8.24
2019-03-18T09:37:40.355Z,8.13
2019-03-18T09:40:13.034Z,8.06
2019-03-18T09:42:41.482Z,8.15
2019-03-18T09:45:12.106Z,8.23
2019-03-18T09:47:40.553Z,8.36
2019-03-18T09:50:10.466Z,8.64
2019-03-18T09:52:39.225Z,8.85
2019-03-18T09:55:08.713Z,8.86
2019-03-18T09:57:37.313Z,8.79
2019-03-18T10:00:08.809Z,8.71
2019-03-18T10:02:37.278Z,8.59
2019-03-18T10:05:07.059Z,8.42
2019-03-18T10:07:35.508Z,8.36
2019-03-18T10:10:11.863Z,8.51
2019-03-18T10:12:40.443Z,8.76
2019-03-18T10:15:17.489Z,8.82
2019-03-18T10:17:45.962Z,8.93
2019-03-18T10:20:14.539Z,8.94
2019-03-18T10:22:43.351Z,8.87
2019-03-18T10:25:11.805Z,8.76
2019-03-18T10:27:40.281Z,8.72
2019-03-18T10:30:10.939Z,8.86
2019-03-18T10:32:39.417Z,9.06
2019-03-18T10:35:08.509Z,9.20
2019-03-18T10:37:36.955Z,9.10
2019-03-18T10:40:13.466Z,8.90
2019-03-18T10:42:41.972Z,8.52
2019-03-18T10:45:12.391Z,7.13
2019-03-18T10:47:40.858Z,5.90
2019-03-18T10:50:14.500Z,5.37
2019-03-18T10:52:43.198Z,5.20
2019-03-18T10:55:11.721Z,5.16
2019-03-18T10:57:40.212Z,5.31
2019-03-18T11:00:14.011Z,5.54
2019-03-18T11:02:44.834Z,5.77
2019-03-18T11:05:13.284Z,5.84
2019-03-18T11:07:41.730Z,6.16
2019-03-18T11:10:12.805Z,6.59
2019-03-18T11:12:41.361Z,6.59
2019-03-18T11:15:12.437Z,6.68
2019-03-18T11:17:40.985Z,6.82
2019-03-18T11:20:12.151Z,6.93
2019-03-18T11:22:40.578Z,6.98
2019-03-18T11:25:10.968Z,6.87
2019-03-18T11:27:39.450Z,6.81
2019-03-18T11:30:16.365Z,6.69
2019-03-18T11:32:44.888Z,6.63
2019-03-18T11:35:13.382Z,6.70
2019-03-18T11:37:41.865Z,6.84
2019-03-18T11:40:13.266Z,6.84
2019-03-18T11:42:41.876Z,6.98
2019-03-18T11:45:14.440Z,7.01
2019-03-18T11:47:43.019Z,7.20
2019-03-18T11:50:15.581Z,7.31
2019-03-18T11:52:44.052Z,7.39
2019-03-18T11:55:15.545Z,7.46
2019-03-18T11:57:43.998Z,7.42
2019-03-18T12:00:15.391Z,7.50
2019-03-18T12:02:43.850Z,7.60
2019-03-18T12:05:14.920Z,7.66
2019-03-18T12:07:43.638Z,7.71
2019-03-18T12:10:14.600Z,7.67
2019-03-18T12:12:43.056Z,7.43
2019-03-18T12:15:14.341Z,7.14
2019-03-18T12:17:42.800Z,7.15
2019-03-18T12:20:24.483Z,7.35
2019-03-18T12:22:45.050Z,7.58
2019-03-18T12:25:13.727Z,7.80
2019-03-18T12:27:42.179Z,7.75
2019-03-18T12:30:16.613Z,7.97
2019-03-18T12:32:45.056Z,8.04
2019-03-18T12:35:13.764Z,8.15
2019-03-18T12:37:42.223Z,8.36
2019-03-18T12:40:13.576Z,8.68
2019-03-18T12:42:42.219Z,8.91
2019-03-18T12:45:14.632Z,9.23
2019-03-18T12:47:43.088Z,9.29
2019-03-18T12:50:38.513Z,9.33
2019-03-18T12:52:53.232Z,9.33
2019-03-18T12:55:21.698Z,9.21
2019-03-18T12:57:50.196Z,8.99
2019-03-18T13:00:27.718Z,8.67
2019-03-18T13:02:56.417Z,8.34
2019-03-18T13:05:25.058Z,8.07
2019-03-18T13:07:53.549Z,7.69
2019-03-18T13:10:22.347Z,7.48
2019-03-18T13:12:51.035Z,7.41
2019-03-18T13:15:20.627Z,7.45
2019-03-18T13:17:49.099Z,7.51
2019-03-18T13:20:19.766Z,7.60
2019-03-18T13:22:48.236Z,7.58
2019-03-18T13:25:16.731Z,7.57
2019-03-18T13:27:45.241Z,7.66
2019-03-18T13:30:18.012Z,7.64
2019-03-18T13:32:46.553Z,7.61
2019-03-18T13:35:15.269Z,7.60
2019-03-18T13:37:44.157Z,7.64
2019-03-18T13:40:14.436Z,7.78
2019-03-18T13:42:43.030Z,7.80
2019-03-18T13:45:18.453Z,7.74
2019-03-18T13:47:46.974Z,7.66
2019-03-18T13:50:17.829Z,7.31
2019-03-18T13:52:46.269Z,7.37
2019-03-18T13:55:14.791Z,7.36
2019-03-18T13:57:43.316Z,7.30
2019-03-18T14:00:14.391Z,7.31
2019-03-18T14:02:43.311Z,7.39
2019-03-18T14:05:12.709Z,7.57
2019-03-18T14:07:41.237Z,7.71
2019-03-18T14:10:18.025Z,7.82
2019-03-18T14:12:46.760Z,7.92
2019-03-18T14:15:22.407Z,8.06
2019-03-18T14:17:51.151Z,8.19
2019-03-18T14:20:25.018Z,8.35
2019-03-18T14:22:53.637Z,8.33
2019-03-18T14:25:22.102Z,8.28
2019-03-18T14:27:50.562Z,8.38
2019-03-18T14:30:20.072Z,8.49
2019-03-18T14:32:48.593Z,8.76
2019-03-18T14:35:21.470Z,9.03
2019-03-18T14:37:47.527Z,9.15
2019-03-18T14:40:18.136Z,9.42
2019-03-18T14:42:46.579Z,9.60
2019-03-18T14:45:19.358Z,9.56
2019-03-18T14:47:47.862Z,9.62
2019-03-18T14:50:17.965Z,9.60
2019-03-18T14:52:46.421Z,9.43
2019-03-18T14:55:16.029Z,9.20
2019-03-18T14:57:44.442Z,9.02
2019-03-18T15:00:15.928Z,8.90
2019-03-18T15:02:44.368Z,8.55
2019-03-18T15:05:14.659Z,7.79
2019-03-18T15:07:43.317Z,7.13
2019-03-18T15:10:23.103Z,6.86
2019-03-18T15:12:51.546Z,6.81
2019-03-18T15:15:20.148Z,6.76
2019-03-18T15:17:48.596Z,6.77
2019-03-18T15:20:19.813Z,6.83
2019-03-18T15:22:48.683Z,6.94
2019-03-18T15:25:25.489Z,6.99
2019-03-18T15:27:54.052Z,7.09
2019-03-18T15:30:22.487Z,7.18
2019-03-18T15:32:50.995Z,7.33
2019-03-18T15:35:19.671Z,7.62
2019-03-18T15:37:51.293Z,7.78
2019-03-18T15:40:22.048Z,7.86
2019-03-18T15:42:50.488Z,7.79
2019-03-18T15:45:20.202Z,7.73
2019-03-18T15:47:49.441Z,7.65
2019-03-18T15:50:19.146Z,7.60
2019-03-18T15:52:47.564Z,7.63
2019-03-18T15:55:16.102Z,7.56
2019-03-18T15:57:44.717Z,7.50
2019-03-18T16:00:23.159Z,7.37
2019-03-18T16:02:52.145Z,7.31
2019-03-18T16:05:20.839Z,7.15
2019-03-18T16:07:49.359Z,6.99
2019-03-18T16:10:18.753Z,6.85
2019-03-18T16:12:47.417Z,6.76
2019-03-18T16:15:16.826Z,6.66
2019-03-18T16:17:45.363Z,6.57
2019-03-18T16:20:29.828Z,6.55
2019-03-18T16:22:58.284Z,6.57
2019-03-18T16:25:26.779Z,6.58
2019-03-18T16:27:55.270Z,6.61
2019-03-18T16:30:23.700Z,6.59
2019-03-18T16:32:52.335Z,6.56
2019-03-18T16:35:20.935Z,6.55
2019-03-18T16:37:49.364Z,6.51
2019-03-18T16:40:21.930Z,6.47
2019-03-18T16:42:50.345Z,6.42
2019-03-18T16:45:19.719Z,6.38
2019-03-18T16:47:48.881Z,6.35
2019-03-18T16:50:31.300Z,6.30
2019-03-18T16:52:59.884Z,6.28
2019-03-18T16:55:28.319Z,6.27
2019-03-18T16:57:56.752Z,6.18
2019-03-18T17:00:26.244Z,6.14
2019-03-18T17:02:54.751Z,6.14
2019-03-18T17:05:23.218Z,6.04
2019-03-18T17:07:54.024Z,6.08
2019-03-18T17:10:22.225Z,6.05
2019-03-18T17:12:51.227Z,6.00
2019-03-18T17:15:20.727Z,5.95
2019-03-18T17:17:49.188Z,5.90
2019-03-18T17:20:18.297Z,5.85
2019-03-18T17:22:49.750Z,5.84
2019-03-18T17:25:19.263Z,5.80
2019-03-18T17:27:47.751Z,5.78
2019-03-18T17:30:20.090Z,5.77
2019-03-18T17:32:48.621Z,5.77
2019-03-18T17:35:17.072Z,5.72
2019-03-18T17:37:45.578Z,5.67
2019-03-18T17:40:18.179Z,5.64
2019-03-18T17:42:46.638Z,5.38
2019-03-18T17:45:16.295Z,5.57
2019-03-18T17:47:44.799Z,5.53
2019-03-18T17:50:24.772Z,5.50
2019-03-18T17:53:02.125Z,5.47
2019-03-18T17:55:23.474Z,5.46
2019-03-18T17:57:51.860Z,5.40
2019-03-18T18:00:24.727Z,5.34
2019-03-18T18:02:53.265Z,5.31
2019-03-18T18:05:21.732Z,5.27
2019-03-18T18:07:50.160Z,5.24
2019-03-18T18:10:18.613Z,5.24
2019-03-18T18:12:47.097Z,5.18
2019-03-18T18:15:15.554Z,5.17
2019-03-18T18:17:43.989Z,5.14
2019-03-18T18:20:13.870Z,5.17
2019-03-18T18:22:42.305Z,5.18
2019-03-18T18:25:11.877Z,5.21
2019-03-18T18:27:40.328Z,5.22
2019-03-18T18:30:11.198Z,5.28
2019-03-18T18:32:39.649Z,5.28
2019-03-18T18:35:10.508Z,5.26
2019-03-18T18:37:38.953Z,5.22
2019-03-18T18:40:10.759Z,5.19
2019-03-18T18:42:39.295Z,5.21
2019-03-18T18:45:09.658Z,5.18
2019-03-18T18:47:38.327Z,5.15
2019-03-18T18:50:09.474Z,5.12
2019-03-18T18:52:37.891Z,5.09
2019-03-18T18:55:11.246Z,5.07
2019-03-18T18:57:39.759Z,5.09
2019-03-18T19:00:19.497Z,5.11
2019-03-18T19:02:47.994Z,5.06
2019-03-18T19:05:19.609Z,5.10
2019-03-18T19:07:48.352Z,5.14
2019-03-18T19:10:20.713Z,5.18
2019-03-18T19:12:49.393Z,5.27
2019-03-18T19:15:26.516Z,5.37
2019-03-18T19:17:54.970Z,5.46
2019-03-18T19:20:23.469Z,5.52
2019-03-18T19:22:51.950Z,5.61
2019-03-18T19:25:20.372Z,5.63
2019-03-18T19:27:48.818Z,5.68
2019-03-18T19:30:19.278Z,5.72
2019-03-18T19:32:47.945Z,5.72
2019-03-18T19:35:20.091Z,5.71
2019-03-18T19:37:48.565Z,5.71
2019-03-18T19:40:23.863Z,5.66
2019-03-18T19:42:52.405Z,5.62
2019-03-18T19:45:20.854Z,5.54
2019-03-18T19:47:49.289Z,5.48
2019-03-18T19:50:25.675Z,5.39
2019-03-18T19:52:54.193Z,5.39
2019-03-18T19:55:22.695Z,5.33
2019-03-18T19:57:51.257Z,5.25
2019-03-18T20:00:23.807Z,5.20
2019-03-18T20:02:52.323Z,5.16
2019-03-18T20:05:20.777Z,5.18
2019-03-18T20:07:49.222Z,5.16
2019-03-18T20:10:18.792Z,5.15
2019-03-18T20:12:47.251Z,5.10
2019-03-18T20:15:16.736Z,5.07
2019-03-18T20:17:45.193Z,5.05
2019-03-18T20:20:19.301Z,5.07
2019-03-18T20:22:47.742Z,5.08
2019-03-18T20:25:16.270Z,5.13
2019-03-18T20:27:44.718Z,5.22
2019-03-18T20:30:18.555Z,5.29
2019-03-18T20:32:47.188Z,5.27
2019-03-18T20:35:21.748Z,5.16
2019-03-18T20:37:51.771Z,5.10
2019-03-18T20:40:21.000Z,5.07
2019-03-18T20:42:49.539Z,5.06
2019-03-18T20:45:19.309Z,5.04
2019-03-18T20:47:48.088Z,5.07
2019-03-18T20:50:20.350Z,5.08
2019-03-18T20:52:48.772Z,5.09
2019-03-18T20:55:17.482Z,5.10
2019-03-18T20:57:46.144Z,5.14
2019-03-18T21:00:18.714Z,5.14
2019-03-18T21:02:47.323Z,5.11
2019-03-18T21:05:16.199Z,5.02
2019-03-18T21:07:44.945Z,4.92
2019-03-18T21:10:20.563Z,4.83
2019-03-18T21:12:49.607Z,4.78
2019-03-18T21:15:18.761Z,4.73
2019-03-18T21:17:47.554Z,4.71
2019-03-18T21:20:24.411Z,4.66
2019-03-18T21:22:52.890Z,4.66
2019-03-18T21:25:21.311Z,4.62
2019-03-18T21:27:49.896Z,4.59
2019-03-18T21:30:19.780Z,4.55
2019-03-18T21:32:48.230Z,4.52
2019-03-18T21:35:16.846Z,4.48
2019-03-18T21:37:45.269Z,4.46
2019-03-18T21:40:16.022Z,4.47
2019-03-18T21:42:44.502Z,4.44
2019-03-18T21:45:18.009Z,4.42
2019-03-18T21:47:46.455Z,4.40
2019-03-18T21:50:15.839Z,4.37
2019-03-18T21:52:44.446Z,4.36
2019-03-18T21:55:13.457Z,4.37
2019-03-18T21:57:42.169Z,4.39
2019-03-18T22:00:18.269Z,4.31
2019-03-18T22:02:46.771Z,4.23
2019-03-18T22:05:15.835Z,4.23
2019-03-18T22:07:44.280Z,4.21
2019-03-18T22:10:14.356Z,4.25
2019-03-18T22:12:42.866Z,4.29
2019-03-18T22:15:15.245Z,4.24
2019-03-18T22:17:43.795Z,4.04
2019-03-18T22:20:18.835Z,4.12
2019-03-18T22:22:47.312Z,4.05
2019-03-18T22:25:16.407Z,4.03
2019-03-18T22:27:44.953Z,3.99
2019-03-18T22:30:18.182Z,3.97
2019-03-18T22:32:47.186Z,3.96
2019-03-18T22:35:15.680Z,3.92
2019-03-18T22:37:44.437Z,3.92
2019-03-18T22:40:18.938Z,3.90
2019-03-18T22:42:47.408Z,3.88
2019-03-18T22:45:19.293Z,3.85
2019-03-18T22:47:47.750Z,3.83
2019-03-18T22:50:17.990Z,3.82
2019-03-18T22:52:46.428Z,3.78
2019-03-18T22:55:15.804Z,3.76
2019-03-18T22:57:44.250Z,3.78
2019-03-18T23:00:21.580Z,3.75
2019-03-18T23:02:51.244Z,3.76
2019-03-18T23:05:19.711Z,3.75
2019-03-18T23:07:48.147Z,3.77
2019-03-18T23:10:16.696Z,3.78
2019-03-18T23:12:45.194Z,3.77
2019-03-18T23:15:13.941Z,3.75
2019-03-18T23:17:42.791Z,3.78
2019-03-18T23:20:11.391Z,3.77
2019-03-18T23:22:39.858Z,3.75
2019-03-18T23:25:08.494Z,3.70
2019-03-18T23:27:37.049Z,3.69
2019-03-18T23:30:10.773Z,3.70
2019-03-18T23:32:39.229Z,3.70
2019-03-18T23:35:08.105Z,3.68
2019-03-18T23:37:36.532Z,3.66
2019-03-18T23:40:14.851Z,3.64
2019-03-18T23:42:43.271Z,3.63
2019-03-18T23:45:12.997Z,3.62
2019-03-18T23:47:41.424Z,3.61
2019-03-18T23:50:15.318Z,3.63
2019-03-18T23:52:43.795Z,3.62
2019-03-18T23:55:18.841Z,3.65
2019-03-18T23:57:42.533Z,3.73
